Spring Valley, Wisconsin
Current Conditions -  °F | °C
As of 4:15 PM on Saturday 25 Oct 2014 (Local Time) from KLUM Reporting Station
Clear Clear  
Wind Chill: 63°   Ceiling: Unl
Heat Index: 63°   Visibility: 10mi
Dew Point: 25°   Wind: 16mph
Humidity: 24%   Direction: 280°W
Pressure: 29.98"   Gusts: 22mph
Location:  44.85°N, 92.24°W
Report Text: KLUM 252115Z AUTO 28014G19KT 10SM CLR 17/M04 A2998 RMK AO2 T01701040
Loading
Personal Weather Stations






























Interactive Weather Map
Tropical Storm Tracking
New forecast layout! Learn more

10-Day Weather Forecast

Advertisements
Track Severe Weather on mobile